CYMX/YMX METAR and TAF weather

Enter ICAO airport designator
Station Type Date Time Source
CYMX METAR 2018/12/13 00:00 UTC NOAA

CYMX 130000Z 05004KT 030V110 25SM FEW220 M16/M18 A3032 RMK CI1 CI TR SLP275


Station Type Date Time Source
CYMX Decoded METAR 2018/12/13 00:00 UTC NOAA

Montreal / Mirabel, Canada (CYMX) 45-41N 074-02W
Dec 12, 2018 - 07:00 PM EST / 2018.12.13 0000 UTC
Wind: from the NE (050 degrees) at 5 MPH (4 KT) (direction variable):0
Visibility: 25 mile(s):0
Sky conditions: mostly clear
Temperature: 3 F (-16 C)
Windchill: -7 F (-22 C):2
Dew Point: 0 F (-18 C)
Relative Humidity: 84%
Pressure (altimeter): 30.32 in. Hg (1026 hPa)
ob: CYMX 130000Z 05004KT 030V110 25SM FEW220 M16/M18 A3032 RMK CI1 CI TR SLP275
cycle: 0

Station Type Date Time Source
CYMX TAF 2018/12/12 18:48 UTC NOAA

TAF TAF CYMX 121744Z 1218/1318 05005KT P6SM FEW025
FM131600 06008KT P6SM BKN030
RMK NXT FCST BY 130000Z


Example: see airport list